Time;durP1;ratioP1;P1;durP2;ratioP2;P2;SDS_P1;SDS_P2;PMS_P1;PMS_P2;Temp;Humidity;BMP_temperature;BMP_pressure;BME280_temperature;BME280_humidity;BME280_pressure;Samples;Min_cycle;Max_cycle;Signal;HPM_P1;HPM_P2
2022/01/02 08:58:51;;;;;;;7.00;3.35;;;18.00;69.20;;;;;;5106504;27;20505;-73
2022/01/02 09:01:17;;;;;;;5.85;3.05;;;16.50;76.00;;;;;;5099801;27;20517;-72
2022/01/02 09:03:43;;;;;;;5.47;3.47;;;15.40;80.60;;;;;;5054349;27;20100;-72
2022/01/02 09:06:08;;;;;;;7.43;3.63;;;14.40;89.00;;;;;;5084335;28;20032;-73
2022/01/02 09:08:36;;;;;;;5.80;3.75;;;13.70;96.60;;;;;;5082321;28;20050;-72
2022/01/02 09:11:02;;;;;;;4.60;3.47;;;13.10;99.90;;;;;;5115440;27;20165;-73
2022/01/02 09:13:28;;;;;;;6.78;4.18;;;12.60;99.90;;;;;;5111977;27;20039;-72
2022/01/02 09:15:54;;;;;;;6.78;5.10;;;12.20;99.90;;;;;;5097693;28;20043;-73
2022/01/02 09:18:20;;;;;;;6.20;4.65;;;11.90;99.90;;;;;;5105361;28;20054;-73
2022/01/02 09:20:46;;;;;;;8.50;5.07;;;11.70;99.90;;;;;;5065998;28;199036;-73
2022/01/02 09:23:12;;;;;;;8.07;5.03;;;11.50;99.90;;;;;;5075213;28;20051;-70
2022/01/02 09:25:38;;;;;;;7.72;4.47;;;11.30;99.90;;;;;;5078371;28;20431;-70
2022/01/02 09:28:04;;;;;;;9.63;5.38;;;11.20;99.90;;;;;;5048580;28;20043;-70
2022/01/02 09:30:29;;;;;;;7.00;4.63;;;11.10;99.90;;;;;;5072560;28;20052;-70
2022/01/02 09:32:57;;;;;;;7.03;4.82;;;11.00;99.90;;;;;;5093519;28;20039;-70
2022/01/02 09:35:23;;;;;;;8.52;5.57;;;10.90;99.90;;;;;;5091500;28;20047;-70
2022/01/02 09:37:49;;;;;;;7.78;5.85;;;10.90;99.90;;;;;;5091358;28;20565;-70
2022/01/02 09:40:15;;;;;;;9.75;6.50;;;10.90;99.90;;;;;;5095275;28;20044;-70
2022/01/02 09:42:40;;;;;;;7.68;6.88;;;10.80;99.90;;;;;;5088346;28;20101;-70
2022/01/02 09:45:07;;;;;;;10.40;6.32;;;10.80;99.90;;;;;;5088604;28;20041;-70
2022/01/02 09:47:33;;;;;;;9.38;7.40;;;10.70;99.90;;;;;;5092405;28;20044;-70
2022/01/02 09:50:09;;;;;;;12.48;7.57;;;10.70;99.90;;;;;;5090589;28;20071;-70
2022/01/02 09:52:35;;;;;;;12.68;8.55;;;10.70;99.90;;;;;;5095701;28;20047;-70
2022/01/02 09:55:01;;;;;;;9.63;7.85;;;10.70;99.90;;;;;;5092147;28;20113;-70
2022/01/02 09:57:27;;;;;;;12.63;8.15;;;10.70;99.90;;;;;;5091938;28;20059;-72
2022/01/02 09:59:55;;;;;;;13.30;8.30;;;10.70;99.90;;;;;;5089140;28;20051;-72
2022/01/02 10:02:22;;;;;;;11.07;6.57;;;10.70;99.90;;;;;;5078601;28;20405;-73
2022/01/02 10:04:47;;;;;;;12.98;6.85;;;10.70;99.90;;;;;;5088671;28;20054;-71
2022/01/02 10:07:33;;;;;;;9.77;7.30;;;10.70;99.90;;;;;;5084607;28;20043;-72
2022/01/02 10:10:10;;;;;;;13.15;8.90;;;10.70;99.90;;;;;;5062991;28;20048;-71
2022/01/02 10:12:37;;;;;;;9.25;7.78;;;10.70;99.90;;;;;;5079235;28;20043;-71
2022/01/02 10:15:20;;;;;;;14.55;7.95;;;10.70;99.90;;;;;;5077459;28;20046;-71
2022/01/02 10:18:03;;;;;;;12.50;7.45;;;10.70;99.90;;;;;;5080293;28;20093;-71
2022/01/02 10:20:39;;;;;;;11.90;8.15;;;10.70;99.90;;;;;;5081369;28;20047;-72
2022/01/02 10:23:15;;;;;;;11.35;7.93;;;10.70;99.90;;;;;;5077466;28;20047;-72
2022/01/02 10:25:56;;;;;;;12.35;8.13;;;10.60;99.90;;;;;;5078234;28;20068;-72
2022/01/02 10:28:37;;;;;;;12.70;7.38;;;10.60;99.90;;;;;;5077794;28;20469;-71
2022/01/02 10:31:07;;;;;;;15.43;7.18;;;10.70;99.90;;;;;;5078997;28;20567;-72
2022/01/02 10:33:52;;;;;;;13.57;7.30;;;10.60;99.90;;;;;;5082056;28;20047;-72
2022/01/02 10:36:24;;;;;;;14.80;7.88;;;10.70;99.90;;;;;;5064387;28;20085;-72
2022/01/02 10:39:09;;;;;;;18.65;6.82;;;10.70;99.90;;;;;;5053646;28;20375;-71
2022/01/02 10:41:38;;;;;;;13.45;7.22;;;10.70;99.90;;;;;;5080420;28;20036;-70
2022/01/02 10:44:19;;;;;;;15.77;7.55;;;10.70;99.90;;;;;;5077222;28;20044;-71
2022/01/02 10:47:07;;;;;;;23.58;7.68;;;10.70;99.90;;;;;;5078336;28;20036;-72
2022/01/02 10:50:06;;;;;;;20.48;7.50;;;10.70;99.90;;;;;;5080265;28;20059;-71
2022/01/02 10:52:37;;;;;;;15.73;7.55;;;10.70;99.90;;;;;;5078161;28;20040;-71
2022/01/02 10:55:23;;;;;;;20.20;8.00;;;10.80;99.90;;;;;;5077475;28;20700;-71
2022/01/02 10:57:51;;;;;;;20.00;9.88;;;10.80;99.90;;;;;;5080928;28;20115;-72
2022/01/02 11:00:22;;;;;;;21.77;8.95;;;10.90;99.90;;;;;;5079147;28;20047;-72
2022/01/02 11:02:48;;;;;;;18.80;7.32;;;10.90;99.90;;;;;;5077786;28;20480;-71
2022/01/02 11:05:17;;;;;;;17.27;6.82;;;11.00;99.90;;;;;;5067084;28;20075;-71
2022/01/02 11:07:58;;;;;;;20.15;7.90;;;11.10;99.90;;;;;;5035515;28;20059;-72
2022/01/02 11:10:25;;;;;;;20.55;7.63;;;11.10;99.90;;;;;;5049405;28;20557;-72
2022/01/02 11:12:53;;;;;;;19.50;8.70;;;11.10;99.90;;;;;;5076988;28;20047;-72
2022/01/02 11:15:22;;;;;;;16.27;7.53;;;11.10;99.90;;;;;;5059799;28;20048;-71
2022/01/02 11:17:48;;;;;;;15.15;7.15;;;11.20;99.90;;;;;;5079744;28;20443;-72
2022/01/02 11:20:20;;;;;;;16.90;6.80;;;11.20;99.90;;;;;;5075558;28;20105;-71
2022/01/02 11:23:05;;;;;;;18.90;6.50;;;11.20;99.90;;;;;;5079281;28;20122;-71
2022/01/02 11:25:46;;;;;;;14.93;6.88;;;11.20;99.90;;;;;;5080925;28;20443;-72
2022/01/02 11:28:35;;;;;;;20.35;7.40;;;11.20;99.90;;;;;;5076886;28;20538;-71
2022/01/02 11:31:04;;;;;;;19.10;6.93;;;11.20;99.90;;;;;;5077971;28;20076;-71
2022/01/02 11:33:31;;;;;;;13.73;5.63;;;11.20;99.90;;;;;;5079076;28;20404;-71
2022/01/02 11:36:00;;;;;;;16.08;7.25;;;11.20;99.90;;;;;;5078072;28;20043;-71
2022/01/02 11:38:41;;;;;;;13.05;5.72;;;11.20;99.90;;;;;;5059572;28;20093;-71
2022/01/02 11:41:07;;;;;;;15.38;6.47;;;11.10;99.90;;;;;;5079769;28;20150;-71
2022/01/02 11:43:36;;;;;;;26.20;7.22;;;11.20;99.90;;;;;;5076347;28;20658;-71
2022/01/02 11:46:23;;;;;;;18.27;6.45;;;11.10;99.90;;;;;;5082020;28;20522;-71
2022/01/02 11:49:04;;;;;;;16.98;7.32;;;11.10;99.90;;;;;;5078524;28;20058;-71
2022/01/02 11:51:48;;;;;;;17.15;6.35;;;11.10;99.90;;;;;;5077465;28;20569;-72
2022/01/02 11:54:30;;;;;;;18.77;6.60;;;11.10;99.90;;;;;;5080076;28;20035;-71
2022/01/02 11:57:20;;;;;;;21.23;7.45;;;11.20;99.90;;;;;;5078648;28;20505;-71
2022/01/02 11:59:46;;;;;;;25.70;6.90;;;11.20;99.90;;;;;;5076514;28;20089;-72
2022/01/02 12:02:26;;;;;;;16.58;6.18;;;11.20;99.90;;;;;;5081070;28;20036;-72
2022/01/02 12:04:59;;;;;;;15.55;7.70;;;11.20;99.90;;;;;;5079757;28;20101;-71
2022/01/02 12:07:33;;;;;;;10.88;5.20;;;11.20;99.90;;;;;;5079015;28;20122;-71
2022/01/02 12:10:17;;;;;;;18.90;6.13;;;11.20;99.90;;;;;;5062572;28;20047;-71
2022/01/02 12:13:20;;;;;;;18.17;6.53;;;11.20;99.90;;;;;;5076566;28;20055;-71
2022/01/02 12:15:46;;;;;;;21.65;6.43;;;11.20;99.90;;;;;;5076752;28;20535;-72
2022/01/02 12:18:26;;;;;;;14.82;5.82;;;11.20;99.90;;;;;;5081101;28;20041;-72
2022/01/02 12:21:00;;;;;;;18.30;5.95;;;11.20;99.90;;;;;;5077202;28;20070;-71
2022/01/02 12:26:11;;;;;;;15.57;5.88;;;11.20;99.90;;;;;;5062586;28;20074;-71
2022/01/02 12:28:39;;;;;;;19.42;5.28;;;11.40;99.90;;;;;;5078023;28;20043;-71
2022/01/02 12:31:07;;;;;;;23.23;5.30;;;11.60;99.90;;;;;;5078389;28;20076;-71
2022/01/02 12:33:35;;;;;;;23.40;9.23;;;11.70;99.90;;;;;;5079945;28;20540;-71
2022/01/02 12:36:17;;;;;;;13.57;5.65;;;11.70;99.90;;;;;;5075443;28;20585;-71
2022/01/02 12:38:59;;;;;;;16.42;5.35;;;11.80;99.90;;;;;;5079329;28;20055;-72
2022/01/02 12:41:30;;;;;;;11.63;5.33;;;11.80;99.90;;;;;;5076887;28;20105;-71
2022/01/02 12:43:57;;;;;;;11.95;5.20;;;11.80;99.90;;;;;;5072607;28;20037;-71
2022/01/02 12:46:46;;;;;;;19.55;6.25;;;11.70;99.90;;;;;;5078095;28;20040;-71
2022/01/02 12:49:34;;;;;;;16.60;5.80;;;11.70;99.90;;;;;;5074286;28;20039;-72
2022/01/02 12:52:05;;;;;;;23.10;5.35;;;11.60;99.90;;;;;;5074436;28;20044;-71
2022/01/02 12:54:34;;;;;;;14.15;5.20;;;11.90;99.90;;;;;;5078988;28;20039;-72
2022/01/02 12:57:06;;;;;;;15.07;5.10;;;12.20;99.90;;;;;;5074692;28;20052;-71
2022/01/02 12:59:37;;;;;;;23.40;5.63;;;12.40;99.90;;;;;;5079102;28;20524;-72
2022/01/02 13:02:04;;;;;;;16.95;4.28;;;12.50;99.90;;;;;;5079980;28;20068;-72
2022/01/02 13:04:36;;;;;;;20.20;6.55;;;12.50;99.90;;;;;;5076629;28;20055;-71
2022/01/02 13:07:26;;;;;;;12.10;4.55;;;12.40;99.90;;;;;;5078518;28;20040;-71
2022/01/02 13:09:54;;;;;;;13.98;4.50;;;12.20;99.90;;;;;;5076571;28;20109;-71
2022/01/02 13:12:21;;;;;;;14.10;4.38;;;12.10;99.90;;;;;;5075903;28;20086;-72
2022/01/02 13:14:52;;;;;;;12.20;4.78;;;11.90;99.90;;;;;;5077881;28;20040;-71
2022/01/02 13:17:21;;;;;;;17.23;4.63;;;11.80;99.90;;;;;;5076211;28;20477;-71
2022/01/02 13:19:58;;;;;;;13.15;5.22;;;11.70;99.90;;;;;;5066802;28;20557;-71
2022/01/02 13:22:26;;;;;;;15.15;4.35;;;11.60;99.90;;;;;;5080039;28;20193;-72
2022/01/02 13:24:53;;;;;;;25.23;5.85;;;11.50;99.90;;;;;;5059284;28;20489;-72
2022/01/02 13:27:24;;;;;;;15.95;5.05;;;11.40;99.90;;;;;;5078603;28;20031;-72
2022/01/02 13:29:57;;;;;;;21.05;5.70;;;11.40;99.90;;;;;;5076597;28;20047;-72
2022/01/02 13:32:23;;;;;;;18.38;4.25;;;11.30;99.90;;;;;;5074728;28;20364;-71
2022/01/02 13:35:18;;;;;;;12.88;3.90;;;11.30;99.90;;;;;;5062019;28;20044;-72
2022/01/02 13:37:47;;;;;;;12.13;5.05;;;11.20;99.90;;;;;;5075011;28;20050;-71
2022/01/02 13:40:18;;;;;;;15.00;5.78;;;11.20;99.90;;;;;;5075386;28;20044;-72
2022/01/02 13:42:46;;;;;;;12.68;5.07;;;11.20;99.90;;;;;;5076488;28;20210;-72
2022/01/02 13:45:23;;;;;;;21.13;5.68;;;11.20;99.90;;;;;;5078633;28;20036;-72
2022/01/02 13:47:51;;;;;;;10.88;4.00;;;11.30;99.90;;;;;;5081410;28;20043;-71
2022/01/02 13:50:43;;;;;;;15.05;5.00;;;11.50;99.90;;;;;;5083570;28;20039;-71
2022/01/02 13:53:23;;;;;;;12.60;4.97;;;11.60;99.90;;;;;;5080355;28;20097;-71
2022/01/02 13:55:51;;;;;;;12.70;5.40;;;11.70;99.90;;;;;;5062109;28;20047;-71
2022/01/02 13:58:22;;;;;;;17.05;4.90;;;11.60;99.90;;;;;;5068377;28;20087;-71
2022/01/02 14:00:53;;;;;;;11.10;3.88;;;11.60;99.90;;;;;;5078267;28;20036;-72
2022/01/02 14:03:32;;;;;;;10.35;3.50;;;11.60;99.90;;;;;;5083762;28;20035;-72
2022/01/02 14:06:06;;;;;;;15.00;4.00;;;11.50;99.90;;;;;;5080951;28;20050;-71
2022/01/02 14:08:40;;;;;;;12.82;4.57;;;11.50;99.90;;;;;;5079336;28;20429;-71
2022/01/02 14:11:16;;;;;;;14.82;3.83;;;11.40;99.90;;;;;;5049701;28;20097;-71
2022/01/02 14:13:49;;;;;;;16.42;4.15;;;11.30;99.90;;;;;;5081877;28;20051;-71
2022/01/02 14:19:02;;;;;;;17.75;4.40;;;11.10;99.90;;;;;;5081064;28;20611;-71
2022/01/02 14:21:28;;;;;;;13.25;4.13;;;11.10;99.90;;;;;;5079286;28;20047;-71
2022/01/02 14:23:54;;;;;;;16.50;4.43;;;11.00;99.90;;;;;;5079001;28;20480;-71
2022/01/02 14:26:22;;;;;;;12.63;4.35;;;10.90;99.90;;;;;;5080215;28;20035;-72
2022/01/02 14:28:54;;;;;;;12.32;3.17;;;10.90;99.90;;;;;;5061259;28;20120;-71
2022/01/02 14:31:20;;;;;;;8.23;3.33;;;10.80;99.90;;;;;;5084177;28;20464;-71
2022/01/02 14:33:45;;;;;;;12.57;4.07;;;10.70;99.90;;;;;;5079709;28;20130;-71
2022/01/02 14:36:11;;;;;;;14.27;3.47;;;10.70;99.90;;;;;;5080750;28;20034;-71
2022/01/02 14:38:37;;;;;;;9.32;3.90;;;10.60;99.90;;;;;;5082022;28;20131;-71
2022/01/02 14:41:03;;;;;;;11.00;4.97;;;10.60;99.90;;;;;;5075595;28;20123;-72
2022/01/02 14:43:28;;;;;;;10.13;3.65;;;10.50;99.90;;;;;;5079845;28;20052;-71
2022/01/02 14:45:54;;;;;;;17.40;5.63;;;10.50;99.90;;;;;;5051115;28;20036;-71
2022/01/02 14:48:23;;;;;;;14.05;3.47;;;10.40;99.90;;;;;;5077700;28;20043;-71
2022/01/02 14:50:50;;;;;;;10.50;4.00;;;10.40;99.90;;;;;;5081995;28;20046;-71
2022/01/02 14:53:16;;;;;;;15.50;7.55;;;10.30;99.90;;;;;;5077486;28;20044;-71
2022/01/02 14:55:44;;;;;;;15.80;5.60;;;10.30;99.90;;;;;;5080135;28;20060;-71
2022/01/02 14:58:10;;;;;;;14.77;6.45;;;10.30;99.90;;;;;;5080790;28;20051;-71
2022/01/02 15:00:37;;;;;;;20.77;7.45;;;10.20;99.90;;;;;;5077997;28;20075;-71
2022/01/02 15:03:03;;;;;;;14.90;4.68;;;10.20;99.90;;;;;;5084654;28;20101;-71
2022/01/02 15:05:29;;;;;;;11.38;4.22;;;10.20;99.90;;;;;;5075558;28;20045;-71
2022/01/02 15:07:54;;;;;;;12.27;5.50;;;10.10;99.90;;;;;;5080612;28;20066;-71
2022/01/02 15:10:21;;;;;;;12.38;4.70;;;10.10;99.90;;;;;;5078800;28;20047;-71
2022/01/02 15:12:46;;;;;;;16.52;4.65;;;10.10;99.90;;;;;;5051455;28;20055;-71
2022/01/02 15:15:13;;;;;;;12.70;4.60;;;10.00;99.90;;;;;;5064687;28;20135;-71
2022/01/02 15:17:40;;;;;;;18.98;5.07;;;10.00;99.90;;;;;;5079100;28;20123;-71
2022/01/02 15:20:07;;;;;;;12.13;4.57;;;10.00;99.90;;;;;;5081086;28;20106;-71
2022/01/02 15:22:33;;;;;;;10.15;3.53;;;10.00;99.90;;;;;;5081376;28;20651;-71
2022/01/02 15:24:59;;;;;;;13.30;4.00;;;9.90;99.90;;;;;;5077129;28;20040;-71
2022/01/02 15:27:25;;;;;;;15.50;4.32;;;9.90;99.90;;;;;;5082106;28;20122;-71
2022/01/02 15:29:51;;;;;;;14.90;4.55;;;9.90;99.90;;;;;;5077741;28;20043;-71
2022/01/02 15:32:17;;;;;;;10.95;4.45;;;9.90;99.90;;;;;;5080635;28;20067;-71
2022/01/02 15:34:43;;;;;;;14.52;4.00;;;9.90;99.90;;;;;;5064068;28;20052;-71
2022/01/02 15:37:10;;;;;;;12.52;4.20;;;9.90;99.90;;;;;;5079632;28;20424;-71
2022/01/02 15:39:36;;;;;;;13.13;4.50;;;9.80;99.90;;;;;;5080816;28;20040;-71
2022/01/02 15:42:02;;;;;;;12.63;3.20;;;9.80;99.90;;;;;;5077452;28;20489;-71
2022/01/02 15:44:28;;;;;;;8.20;3.20;;;9.80;99.90;;;;;;5079321;28;20164;-71
2022/01/02 15:46:54;;;;;;;16.88;3.92;;;9.80;99.90;;;;;;5080801;28;20058;-71
2022/01/02 15:49:21;;;;;;;7.65;3.10;;;9.80;99.90;;;;;;5076451;28;20047;-71
2022/01/02 15:51:47;;;;;;;8.65;4.47;;;9.80;99.90;;;;;;5080208;28;20156;-71
2022/01/02 15:54:14;;;;;;;10.10;3.83;;;9.80;99.90;;;;;;5078795;28;20040;-71
2022/01/02 15:56:40;;;;;;;15.88;4.00;;;9.80;99.90;;;;;;5079557;28;20116;-71
2022/01/02 15:59:06;;;;;;;10.63;3.97;;;9.70;99.90;;;;;;5081617;28;20451;-71
2022/01/02 16:01:32;;;;;;;10.77;4.30;;;9.70;99.90;;;;;;5078237;28;20040;-71
2022/01/02 16:03:58;;;;;;;12.40;3.85;;;9.70;99.90;;;;;;5081107;28;20519;-72
2022/01/02 16:06:25;;;;;;;16.17;3.80;;;9.70;99.90;;;;;;5077593;28;20036;-71
2022/01/02 16:08:54;;;;;;;11.70;3.80;;;9.70;99.90;;;;;;5079848;28;20040;-71
2022/01/02 16:11:21;;;;;;;11.38;4.05;;;9.70;99.90;;;;;;5078189;28;20040;-71
2022/01/02 16:13:47;;;;;;;11.02;4.53;;;9.60;99.90;;;;;;5059834;28;20086;-71
2022/01/02 16:16:14;;;;;;;9.52;3.97;;;9.70;99.90;;;;;;5080705;28;20036;-71
2022/01/02 16:18:40;;;;;;;12.75;3.30;;;9.70;99.90;;;;;;5079796;28;20077;-71
2022/01/02 16:21:07;;;;;;;7.68;3.13;;;9.70;99.90;;;;;;5079325;28;20043;-71
2022/01/02 16:23:33;;;;;;;10.88;3.78;;;9.60;99.90;;;;;;5081037;28;20417;-71
2022/01/02 16:26:00;;;;;;;11.35;3.35;;;9.60;99.90;;;;;;5074566;28;20071;-71
2022/01/02 16:28:26;;;;;;;12.07;4.85;;;9.60;99.90;;;;;;5080046;28;20048;-71
2022/01/02 16:30:52;;;;;;;16.10;4.50;;;9.60;99.90;;;;;;5077195;28;20043;-71
2022/01/02 16:33:19;;;;;;;10.68;3.53;;;9.60;99.90;;;;;;5078128;28;20503;-71
2022/01/02 16:35:46;;;;;;;16.15;5.00;;;9.60;99.90;;;;;;5080808;28;20039;-71
2022/01/02 16:38:14;;;;;;;13.10;3.80;;;9.60;99.90;;;;;;5078466;28;20050;-71
2022/01/02 16:40:40;;;;;;;12.85;3.60;;;9.60;99.90;;;;;;5078894;28;20071;-71
2022/01/02 16:43:06;;;;;;;15.80;3.50;;;9.60;99.90;;;;;;5080034;28;20051;-71
2022/01/02 16:45:33;;;;;;;12.60;4.72;;;9.60;99.90;;;;;;5077314;28;20040;-71
2022/01/02 16:48:00;;;;;;;11.27;3.33;;;9.60;99.90;;;;;;5082139;28;20040;-71
2022/01/02 16:50:26;;;;;;;8.68;3.03;;;9.50;99.90;;;;;;5050612;28;20383;-71
2022/01/02 16:52:52;;;;;;;15.73;5.05;;;9.50;99.90;;;;;;5079728;28;20036;-71
2022/01/02 16:55:18;;;;;;;11.85;4.10;;;9.50;99.90;;;;;;5060848;28;20062;-71
2022/01/02 16:57:44;;;;;;;8.45;3.08;;;9.50;99.90;;;;;;5076147;28;20044;-71
2022/01/02 17:00:10;;;;;;;7.53;2.70;;;9.50;99.90;;;;;;5081049;28;20048;-71
2022/01/02 17:02:36;;;;;;;10.00;2.90;;;9.50;99.90;;;;;;5080539;28;20074;-71
2022/01/02 17:05:03;;;;;;;11.57;3.50;;;9.50;99.90;;;;;;5081706;28;20087;-71
2022/01/02 17:07:29;;;;;;;12.45;3.75;;;9.40;99.90;;;;;;5078451;28;20085;-71
2022/01/02 17:09:56;;;;;;;13.02;3.38;;;9.50;99.90;;;;;;5076268;28;20044;-71
2022/01/02 17:12:22;;;;;;;13.13;3.17;;;9.40;99.90;;;;;;5078760;28;20052;-71
2022/01/02 17:14:48;;;;;;;10.20;3.17;;;9.40;99.90;;;;;;5076499;28;20044;-71
2022/01/02 17:17:13;;;;;;;8.38;3.15;;;9.40;99.90;;;;;;5077970;28;20044;-71
2022/01/02 17:19:39;;;;;;;17.48;3.88;;;9.40;99.90;;;;;;5081695;28;20144;-71
2022/01/02 17:22:05;;;;;;;13.63;3.50;;;9.40;99.90;;;;;;5080335;28;20389;-71
2022/01/02 17:24:31;;;;;;;10.10;3.05;;;9.40;99.90;;;;;;5085235;28;20506;-72
2022/01/02 17:26:57;;;;;;;12.50;3.33;;;9.40;99.90;;;;;;5069736;28;20388;-71
2022/01/02 17:29:23;;;;;;;11.15;3.20;;;9.40;99.90;;;;;;5082467;28;20123;-71
2022/01/02 17:32:06;;;;;;;12.23;3.35;;;9.40;99.90;;;;;;5083177;28;20543;-71
2022/01/02 17:34:33;;;;;;;7.82;2.60;;;9.40;99.90;;;;;;5079524;28;20043;-71
2022/01/02 17:37:00;;;;;;;6.93;2.70;;;9.30;99.90;;;;;;5083093;28;20032;-71
2022/01/02 17:39:28;;;;;;;8.27;2.83;;;9.30;99.90;;;;;;5083027;28;20051;-71
2022/01/02 17:41:57;;;;;;;9.40;3.38;;;9.30;99.90;;;;;;5080978;28;20382;-71
2022/01/02 17:44:23;;;;;;;8.70;2.88;;;9.30;99.90;;;;;;5084865;28;21021;-71
2022/01/02 17:46:49;;;;;;;5.07;2.92;;;9.20;99.90;;;;;;5080018;28;20351;-71
2022/01/02 17:49:16;;;;;;;12.35;3.85;;;9.30;99.90;;;;;;5082936;28;20491;-71
2022/01/02 17:51:43;;;;;;;17.83;3.10;;;9.20;99.90;;;;;;5085382;28;20075;-71
2022/01/02 17:54:09;;;;;;;4.85;2.20;;;9.20;99.90;;;;;;5078440;28;20043;-71
2022/01/02 17:56:35;;;;;;;10.48;3.55;;;9.20;99.90;;;;;;5083594;28;20050;-71
2022/01/02 17:59:01;;;;;;;6.53;2.80;;;9.20;99.90;;;;;;5080779;28;20091;-71
2022/01/02 18:01:27;;;;;;;12.77;3.38;;;9.20;99.90;;;;;;5083723;28;20089;-71
2022/01/02 18:03:56;;;;;;;11.43;2.92;;;9.20;99.90;;;;;;5082406;28;20539;-71
2022/01/02 18:06:22;;;;;;;6.20;2.70;;;9.20;99.90;;;;;;5080196;28;20044;-71
2022/01/02 18:08:53;;;;;;;11.02;2.97;;;9.20;99.90;;;;;;5084466;28;20036;-71
2022/01/02 18:11:19;;;;;;;9.98;3.78;;;9.10;99.90;;;;;;5079357;28;20089;-71
2022/01/02 18:13:45;;;;;;;9.00;3.08;;;9.10;99.90;;;;;;5080974;28;20073;-71
2022/01/02 18:16:11;;;;;;;11.32;3.22;;;9.10;99.90;;;;;;5082249;28;20079;-71
2022/01/02 18:18:37;;;;;;;12.32;2.97;;;9.10;99.90;;;;;;5078730;28;20420;-71
2022/01/02 18:21:04;;;;;;;11.63;3.53;;;9.20;99.90;;;;;;5083419;28;20044;-71
2022/01/02 18:23:30;;;;;;;10.43;4.22;;;9.10;99.90;;;;;;5080377;28;20040;-71
2022/01/02 18:25:55;;;;;;;9.50;4.35;;;9.10;99.90;;;;;;5082491;28;20040;-71
2022/01/02 18:28:21;;;;;;;11.65;4.88;;;9.20;99.90;;;;;;5082165;28;20627;-71
2022/01/02 18:30:47;;;;;;;9.07;3.83;;;9.10;99.90;;;;;;5079361;28;20497;-71
2022/01/02 18:33:13;;;;;;;15.70;5.05;;;9.20;99.90;;;;;;5050045;28;20556;-71
2022/01/02 18:35:39;;;;;;;9.25;4.65;;;9.10;99.90;;;;;;5079614;28;20468;-71
2022/01/02 18:38:05;;;;;;;14.30;5.30;;;9.10;99.90;;;;;;5079402;28;20039;-71
2022/01/02 18:40:30;;;;;;;12.90;5.00;;;9.10;99.90;;;;;;5082665;28;20135;-71
2022/01/02 18:42:57;;;;;;;15.52;5.07;;;9.10;99.90;;;;;;5079488;28;20570;-71
2022/01/02 18:45:22;;;;;;;10.35;4.43;;;9.10;99.90;;;;;;5083779;28;20155;-71
2022/01/02 18:47:48;;;;;;;17.85;5.03;;;9.10;99.90;;;;;;5080339;28;20119;-71
2022/01/02 18:50:15;;;;;;;10.63;3.97;;;9.10;99.90;;;;;;5080910;28;20632;-71
2022/01/02 18:52:42;;;;;;;30.50;5.35;;;9.10;99.90;;;;;;5068084;28;20135;-71
2022/01/02 18:55:10;;;;;;;11.00;4.10;;;9.10;99.90;;;;;;5058209;28;20039;-71
2022/01/02 18:57:36;;;;;;;10.88;4.97;;;9.10;99.90;;;;;;5065294;28;20060;-71
2022/01/02 19:00:04;;;;;;;16.95;4.10;;;9.10;99.90;;;;;;5078286;28;20064;-71
2022/01/02 19:02:30;;;;;;;9.07;4.80;;;9.10;99.90;;;;;;5069475;28;20040;-71
2022/01/02 19:04:56;;;;;;;9.40;3.55;;;9.00;99.90;;;;;;5081794;28;20355;-71
2022/01/02 19:07:22;;;;;;;11.38;3.97;;;9.00;99.90;;;;;;5079172;28;20547;-71
2022/01/02 19:09:49;;;;;;;14.60;4.93;;;9.00;99.90;;;;;;5080899;28;20032;-71
2022/01/02 19:12:16;;;;;;;11.80;4.03;;;9.00;99.90;;;;;;5079027;28;20047;-71
2022/01/02 19:14:42;;;;;;;13.95;5.28;;;9.00;99.90;;;;;;5062251;28;20094;-71
2022/01/02 19:17:08;;;;;;;14.13;3.90;;;8.90;99.90;;;;;;5081918;28;20051;-71
2022/01/02 19:19:34;;;;;;;11.05;4.20;;;8.90;99.90;;;;;;5077877;28;20082;-71
2022/01/02 19:22:00;;;;;;;14.70;4.43;;;8.90;99.90;;;;;;5080360;28;20065;-71
2022/01/02 19:24:26;;;;;;;9.15;4.43;;;8.90;99.90;;;;;;5078384;28;20119;-71
2022/01/02 19:26:51;;;;;;;13.85;3.97;;;8.90;99.90;;;;;;5079072;28;20040;-71
2022/01/02 19:29:18;;;;;;;14.25;4.70;;;8.90;99.90;;;;;;5078907;28;20058;-71
2022/01/02 19:31:44;;;;;;;15.13;4.95;;;8.80;99.90;;;;;;5077320;28;20040;-71
2022/01/02 19:34:14;;;;;;;17.13;5.65;;;8.80;99.90;;;;;;5077321;28;20051;-71
2022/01/02 19:36:40;;;;;;;17.63;5.15;;;8.80;99.90;;;;;;5046441;28;20131;-71
2022/01/02 19:39:08;;;;;;;12.63;4.68;;;8.80;99.90;;;;;;5068957;28;20651;-71
2022/01/02 19:41:35;;;;;;;22.60;4.80;;;8.80;99.90;;;;;;5070756;28;20067;-71
2022/01/02 19:44:04;;;;;;;14.85;5.22;;;8.80;99.90;;;;;;5071543;28;20038;-71
2022/01/02 19:46:31;;;;;;;19.48;5.30;;;8.90;99.90;;;;;;5070910;28;20047;-71
2022/01/02 19:48:58;;;;;;;19.20;7.13;;;8.90;99.90;;;;;;5070776;28;20345;-71
2022/01/02 19:51:24;;;;;;;21.38;6.13;;;8.90;99.90;;;;;;5069848;28;20178;-71
2022/01/02 19:53:50;;;;;;;12.32;5.13;;;8.90;99.90;;;;;;5071495;28;20032;-71
2022/01/02 19:56:16;;;;;;;17.27;6.38;;;8.90;99.90;;;;;;5069783;28;20048;-71
2022/01/02 19:58:42;;;;;;;23.77;6.60;;;9.00;99.90;;;;;;5072902;28;20438;-71
2022/01/02 20:01:08;;;;;;;13.02;6.20;;;9.00;99.90;;;;;;5070722;28;20047;-71
2022/01/02 20:03:34;;;;;;;16.33;5.57;;;9.00;99.90;;;;;;5070599;28;20040;-71
2022/01/02 20:06:00;;;;;;;24.90;4.90;;;9.00;99.90;;;;;;5073129;28;20362;-72
2022/01/02 20:08:26;;;;;;;17.05;5.47;;;9.00;99.90;;;;;;5071580;28;21073;-71
2022/01/02 20:10:52;;;;;;;17.33;6.00;;;9.00;99.90;;;;;;5073419;28;20497;-71
2022/01/02 20:13:18;;;;;;;18.60;5.65;;;9.00;99.90;;;;;;5071837;28;20047;-71
2022/01/02 20:15:44;;;;;;;18.15;6.18;;;9.00;99.90;;;;;;5071648;28;20035;-72
2022/01/02 20:18:10;;;;;;;22.35;5.40;;;9.00;99.90;;;;;;5069528;28;20056;-71
2022/01/02 20:20:37;;;;;;;23.25;6.38;;;9.00;99.90;;;;;;5069668;28;20762;-71
2022/01/02 20:23:03;;;;;;;12.50;5.00;;;9.00;99.90;;;;;;5074162;28;20090;-71
2022/01/02 20:25:30;;;;;;;18.67;5.45;;;9.10;99.90;;;;;;5068698;28;20496;-72
2022/01/02 20:28:00;;;;;;;16.27;5.18;;;9.10;99.90;;;;;;5071323;28;20431;-71
2022/01/02 20:30:26;;;;;;;15.38;5.85;;;9.10;99.90;;;;;;5062055;28;20055;-72
2022/01/02 20:32:53;;;;;;;8.50;4.05;;;9.20;99.90;;;;;;5072119;28;20987;-71
2022/01/02 20:35:19;;;;;;;7.47;3.33;;;9.20;99.90;;;;;;5072917;28;20040;-72
2022/01/02 20:37:45;;;;;;;11.40;3.40;;;9.30;99.90;;;;;;5068761;28;20053;-71
2022/01/02 20:40:14;;;;;;;16.75;3.42;;;9.30;99.90;;;;;;5071585;28;20047;-71
2022/01/02 20:42:40;;;;;;;11.50;3.42;;;9.30;99.90;;;;;;5071353;28;20125;-71
2022/01/02 20:45:07;;;;;;;9.10;3.28;;;9.30;99.90;;;;;;5065909;28;20465;-72
2022/01/02 20:47:33;;;;;;;8.65;2.85;;;9.30;99.90;;;;;;5088197;28;20101;-71
2022/01/02 20:49:59;;;;;;;10.02;3.35;;;9.20;99.90;;;;;;5071535;28;20444;-71
2022/01/02 20:52:24;;;;;;;10.90;3.72;;;9.20;99.90;;;;;;5073020;28;20086;-71
2022/01/02 20:54:52;;;;;;;7.13;2.72;;;9.20;99.90;;;;;;5071652;28;20378;-71
2022/01/02 20:57:21;;;;;;;10.63;2.92;;;9.10;99.90;;;;;;5071824;28;20501;-71
2022/01/02 20:59:48;;;;;;;9.27;2.65;;;9.10;99.90;;;;;;5073442;28;20048;-71
2022/01/02 21:02:16;;;;;;;9.65;2.38;;;9.10;99.90;;;;;;5074980;28;20512;-71
2022/01/02 21:04:43;;;;;;;8.40;2.83;;;9.10;99.90;;;;;;5073799;28;20136;-72
2022/01/02 21:07:10;;;;;;;7.80;2.55;;;9.10;99.90;;;;;;5053492;28;20059;-72
2022/01/02 21:09:35;;;;;;;4.97;2.70;;;9.10;99.90;;;;;;5072263;28;20093;-71
2022/01/02 21:12:01;;;;;;;7.22;2.88;;;9.10;99.90;;;;;;5074542;28;20044;-71
2022/01/02 21:14:27;;;;;;;7.47;2.72;;;9.10;99.90;;;;;;5062367;28;20079;-72
2022/01/02 21:16:53;;;;;;;9.30;2.92;;;9.00;99.90;;;;;;5067375;28;20268;-71
2022/01/02 21:19:19;;;;;;;5.63;3.08;;;9.00;99.90;;;;;;5071587;28;20111;-71
2022/01/02 21:21:45;;;;;;;6.35;2.40;;;9.10;99.90;;;;;;5071320;28;20044;-71
2022/01/02 21:24:10;;;;;;;11.18;3.83;;;9.00;99.90;;;;;;5067894;28;20044;-72
2022/01/02 21:26:37;;;;;;;6.95;2.53;;;9.10;99.90;;;;;;5069825;28;20449;-71
2022/01/02 21:29:04;;;;;;;9.20;2.90;;;9.00;99.90;;;;;;5072004;28;20043;-71
2022/01/02 21:31:30;;;;;;;8.48;2.35;;;9.00;99.90;;;;;;5054418;28;20113;-71
2022/01/02 21:33:56;;;;;;;9.75;3.05;;;9.00;99.90;;;;;;5073130;28;20040;-71
2022/01/02 21:36:22;;;;;;;8.57;2.35;;;9.00;99.90;;;;;;5070532;28;20047;-71
2022/01/02 21:38:48;;;;;;;9.68;3.17;;;9.00;99.90;;;;;;5056528;28;20063;-71
2022/01/02 21:41:15;;;;;;;12.48;2.60;;;9.00;99.90;;;;;;5070429;28;20032;-71
2022/01/02 21:43:41;;;;;;;8.75;2.63;;;9.00;99.90;;;;;;5069465;28;20052;-71
2022/01/02 21:46:07;;;;;;;7.20;2.10;;;9.00;99.90;;;;;;5089179;28;20177;-71
2022/01/02 21:48:33;;;;;;;7.70;2.30;;;9.00;99.90;;;;;;5049802;28;20131;-71
2022/01/02 21:50:59;;;;;;;7.95;2.47;;;9.00;99.90;;;;;;5072701;28;20699;-71
2022/01/02 21:53:25;;;;;;;7.78;2.42;;;9.00;99.90;;;;;;5071922;28;20487;-70
2022/01/02 21:55:51;;;;;;;7.45;2.25;;;9.00;99.90;;;;;;5069947;28;20044;-71
2022/01/02 21:58:17;;;;;;;7.07;1.65;;;9.00;99.90;;;;;;5071867;28;20557;-71